Airfield :
LOGIN :

Register | Disclaimer

   EN    FR    IT 

 










Legend :    VFR   Marginal VFR   IFR   Intensive IFR   Very Intensive IFR
Visi :
Ceiling :
>= 8 km
>= 3000ft
5 to 8 km
1000 to 3000 ft
1500m to 5 km
500 to 1000 ft
800 to 1500m
200 to 500 ft
< 800m
< 200 ft
Symbols :   Thunderstorms  Fog  Heavy snow  Heavy precipitations  Wind > 20 kt
SIGMETs :     Misc.  Thunderstorms  Icing  Turbulence  Mountain Waves  Volcanic Ashes






- Airport Elevation : 236 ft
- IATA code : JSY


LGSO - Syros

CURRENT METAR :
  • 221520Z AUTO VRB03KT //// // ////// 18/13 Q1014 RE//

EXPIRED METARs :
  • 221450Z AUTO 09004KT 050V110 //// // ////// 18/13 Q1014 RE//
  • 221420Z AUTO VRB03KT //// // ////// 18/13 Q1014 RERA
  • 221350Z AUTO 05005KT //// -RA ////// 18/14 Q1014 RE//
  • 221320Z AUTO 06004KT 360V080 //// // ////// 19/14 Q1014 RE//

TAF N/A



MET'MAP, your aeronautical weather chart ! - Copyright ORBIFLY December 2007 - Disclaimer

ORBIFLY MET'MAP TEAM :

Programming & Development : Alexandra Zaïnal
Concept & Development : Baudouin d'Aumeries
Co-Development & Prog : Marc-Olivier Méhu
Technical & hardware support : Manuel Goepfert

Contact : metmap@orbifly.com




SOURCES & CREDITS :

   NOAA